Time,TemperatureF,DewpointF,PressureIn,WindDirection,WindDirectionDegrees,WindSpeedMPH,WindSpeedGustMPH,Humidity,HourlyPrecipIn,Conditions,Clouds,dailyrainin,SoftwareType,DateUTC
2013-06-27 00:01:00,55.9,53.6,30.06,South,169,4.0,4.0,92,0.00,RA,,0.00,WeatherDisplay:10.37,2013-06-27 07:01:00,
2013-06-27 00:06:00,55.8,53.8,30.06,South,169,3.0,3.0,93,0.00,RA,,0.00,WeatherDisplay:10.37,2013-06-27 07:06:00,
2013-06-27 00:11:00,55.7,53.7,30.07,SSW,209,4.6,4.6,93,0.00,CLR,,0.00,WeatherDisplay:10.37,2013-06-27 07:11:00,
2013-06-27 00:16:00,55.7,53.7,30.07,SSW,209,5.0,5.0,93,0.00,CLR,,0.00,WeatherDisplay:10.37,2013-06-27 07:16:00,
2013-06-27 00:21:00,55.7,53.7,30.07,SSW,209,5.0,5.0,93,0.00,CLR,,0.00,WeatherDisplay:10.37,2013-06-27 07:21:00,
2013-06-27 00:26:00,55.8,53.8,30.07,SSW,202,10.4,10.4,93,0.00,CLR,,0.00,WeatherDisplay:10.37,2013-06-27 07:26:00,
2013-06-27 00:31:00,56.1,53.8,30.07,SSW,202,6.9,6.9,92,0.00,CLR,,0.00,WeatherDisplay:10.37,2013-06-27 07:31:00,
2013-06-27 00:36:00,56.1,53.8,30.07,SSW,202,6.9,6.9,92,0.00,CLR,,0.00,WeatherDisplay:10.37,2013-06-27 07:36:00,
2013-06-27 00:41:00,56.1,53.8,30.07,SSW,202,5.0,5.0,92,0.00,CLR,,0.00,WeatherDisplay:10.37,2013-06-27 07:41:00,
2013-06-27 00:46:00,56.0,53.7,30.07,SSW,202,3.5,3.5,92,0.00,CLR,,0.00,WeatherDisplay:10.37,2013-06-27 07:46:00,
2013-06-27 00:51:00,56.0,53.7,30.07,SSW,202,3.5,3.5,92,0.00,CLR,,0.00,WeatherDisplay:10.37,2013-06-27 07:51:00,
2013-06-27 00:57:00,56.0,53.4,30.07,SSW,202,5.8,5.8,91,0.00,CLR,,0.00,WeatherDisplay:10.37,2013-06-27 07:57:00,
2013-06-27 01:02:00,55.8,53.2,30.08,South,188,5.0,5.0,91,0.00,CLR,,0.00,WeatherDisplay:10.37,2013-06-27 08:02:00,
2013-06-27 01:07:00,55.5,53.2,30.08,South,187,4.0,4.0,92,0.00,CLR,,0.00,WeatherDisplay:10.37,2013-06-27 08:07:00,
2013-06-27 01:12:00,55.2,52.9,30.08,South,187,3.5,3.7,92,0.00,CLR,,0.00,WeatherDisplay:10.37,2013-06-27 08:12:00,
2013-06-27 01:17:00,54.9,52.6,30.08,South,178,5.8,5.8,92,0.00,CLR,,0.00,WeatherDisplay:10.37,2013-06-27 08:17:00,
2013-06-27 01:22:00,54.5,52.5,30.08,SSE,161,6.0,6.0,93,0.00,CLR,,0.00,WeatherDisplay:10.37,2013-06-27 08:22:00,
2013-06-27 01:27:00,54.4,52.4,30.09,SSE,161,5.8,5.8,93,0.00,CLR,,0.00,WeatherDisplay:10.37,2013-06-27 08:27:00,
2013-06-27 01:32:00,54.2,52.2,30.09,SSE,161,4.6,4.6,93,0.00,CLR,,0.00,WeatherDisplay:10.37,2013-06-27 08:32:00,
2013-06-27 01:37:00,54.2,52.2,30.09,SSE,164,5.8,5.8,93,0.00,CLR,,0.00,WeatherDisplay:10.37,2013-06-27 08:37:00,
2013-06-27 01:42:00,54.3,52.3,30.09,SSE,165,5.8,5.8,93,0.00,CLR,,0.00,WeatherDisplay:10.37,2013-06-27 08:42:00,
2013-06-27 01:47:00,54.4,52.4,30.08,SSE,165,4.6,4.6,93,0.00,CLR,,0.00,WeatherDisplay:10.37,2013-06-27 08:47:00,
2013-06-27 01:52:00,54.1,52.1,30.08,SSE,165,5.8,5.8,93,0.00,CLR,,0.00,WeatherDisplay:10.37,2013-06-27 08:52:00,
2013-06-27 01:57:00,53.6,51.6,30.09,SSE,165,4.6,4.6,93,0.00,CLR,,0.00,WeatherDisplay:10.37,2013-06-27 08:57:00,
2013-06-27 02:02:00,53.4,51.4,30.09,SSE,165,4.0,4.0,93,0.00,CLR,,0.00,WeatherDisplay:10.37,2013-06-27 09:02:00,
2013-06-27 02:07:00,53.5,51.8,30.09,SSE,165,4.6,4.6,94,0.00,CLR,,0.00,WeatherDisplay:10.37,2013-06-27 09:07:00,
2013-06-27 02:12:00,53.3,51.0,30.10,SSE,165,3.5,3.5,92,0.00,CLR,,0.00,WeatherDisplay:10.37,2013-06-27 09:12:00,
2013-06-27 02:17:00,52.8,50.8,30.10,SSE,165,4.0,4.0,93,0.00,CLR,,0.00,WeatherDisplay:10.37,2013-06-27 09:17:00,
2013-06-27 02:22:00,52.9,51.2,30.10,SSE,168,3.5,3.5,94,0.00,CLR,,0.00,WeatherDisplay:10.37,2013-06-27 09:22:00,
2013-06-27 02:27:00,53.1,51.4,30.10,South,170,4.6,4.6,94,0.00,CLR,,0.00,WeatherDisplay:10.37,2013-06-27 09:27:00,
2013-06-27 02:32:00,53.5,51.8,30.09,South,170,3.5,3.5,94,0.00,CLR,,0.00,WeatherDisplay:10.37,2013-06-27 09:32:00,
2013-06-27 02:37:00,53.6,51.6,30.10,South,170,4.6,4.6,93,0.00,CLR,,0.00,WeatherDisplay:10.37,2013-06-27 09:37:00,
2013-06-27 02:42:00,53.6,51.3,30.10,South,176,9.2,9.2,92,0.00,CLR,,0.00,WeatherDisplay:10.37,2013-06-27 09:42:00,
2013-06-27 02:47:00,53.4,51.1,30.10,South,177,5.0,5.0,92,0.00,CLR,,0.00,WeatherDisplay:10.37,2013-06-27 09:47:00,
2013-06-27 02:52:00,52.9,50.6,30.10,South,176,4.6,4.6,92,0.00,CLR,,0.00,WeatherDisplay:10.37,2013-06-27 09:52:00,
2013-06-27 02:57:00,52.4,49.8,30.10,South,176,3.5,3.5,91,0.00,CLR,,0.00,WeatherDisplay:10.37,2013-06-27 09:57:00,
2013-06-27 03:02:00,52.2,49.9,30.10,SW,226,5.0,5.0,92,0.00,CLR,,0.00,WeatherDisplay:10.37,2013-06-27 10:02:00,
2013-06-27 03:07:00,52.5,50.2,30.10,SW,228,6.9,6.9,92,0.00,CLR,,0.00,WeatherDisplay:10.37,2013-06-27 10:07:00,
2013-06-27 03:12:00,52.7,50.1,30.09,SW,228,4.6,4.6,91,0.00,CLR,,0.00,WeatherDisplay:10.37,2013-06-27 10:12:00,
2013-06-27 03:17:00,52.7,50.1,30.09,SW,228,3.5,3.5,91,0.00,CLR,,0.00,WeatherDisplay:10.37,2013-06-27 10:17:00,
2013-06-27 03:22:00,53.2,50.3,30.10,SW,228,5.8,5.8,90,0.00,CLR,,0.00,WeatherDisplay:10.37,2013-06-27 10:22:00,
2013-06-27 03:27:00,52.8,49.6,30.10,SW,228,5.0,5.0,89,0.00,CLR,,0.00,WeatherDisplay:10.37,2013-06-27 10:27:00,
2013-06-27 03:32:00,52.2,49.4,30.10,SW,227,4.6,4.6,90,0.00,CLR,,0.00,WeatherDisplay:10.37,2013-06-27 10:32:00,
2013-06-27 03:37:00,51.7,49.2,30.10,SE,144,6.9,6.9,91,0.00,CLR,,0.00,WeatherDisplay:10.37,2013-06-27 10:37:00,
2013-06-27 03:42:00,52.2,49.7,30.10,SSE,156,6.9,6.9,91,0.00,CLR,,0.00,WeatherDisplay:10.37,2013-06-27 10:42:00,
2013-06-27 03:47:00,52.0,49.5,30.10,SSE,153,3.5,3.5,91,0.00,CLR,,0.00,WeatherDisplay:10.37,2013-06-27 10:47:00,
2013-06-27 03:52:00,51.7,49.5,30.10,SSE,153,3.5,3.5,92,0.00,CLR,,0.00,WeatherDisplay:10.37,2013-06-27 10:52:00,
2013-06-27 03:57:00,51.4,49.2,30.11,SSE,153,2.3,2.3,92,0.00,CLR,,0.00,WeatherDisplay:10.37,2013-06-27 10:57:00,
2013-06-27 04:02:00,51.4,49.7,30.10,SSE,153,3.5,3.5,94,0.00,CLR,,0.00,WeatherDisplay:10.37,2013-06-27 11:02:00,
2013-06-27 04:07:00,51.3,49.6,30.10,SSE,153,2.3,2.3,94,0.00,CLR,,0.00,WeatherDisplay:10.37,2013-06-27 11:07:00,
2013-06-27 04:12:00,51.0,49.3,30.10,SSE,153,0.0,0.0,94,0.00,CLR,,0.00,WeatherDisplay:10.37,2013-06-27 11:12:00,
2013-06-27 04:17:00,50.9,49.2,30.10,SSE,153,2.3,2.3,94,0.00,CLR,,0.00,WeatherDisplay:10.37,2013-06-27 11:17:00,
2013-06-27 04:22:00,50.8,49.4,30.10,SSE,153,1.0,1.0,95,0.00,CLR,,0.00,WeatherDisplay:10.37,2013-06-27 11:22:00,
2013-06-27 04:27:00,50.9,49.5,30.10,SSE,153,3.5,3.5,95,0.00,CLR,,0.00,WeatherDisplay:10.37,2013-06-27 11:27:00,
2013-06-27 04:32:00,50.9,49.5,30.10,SSE,153,3.5,3.5,95,0.00,CLR,,0.00,WeatherDisplay:10.37,2013-06-27 11:32:00,
2013-06-27 04:33:00,50.8,49.4,30.10,SSE,153,3.5,3.5,95,0.00,CLR,,0.00,WeatherDisplay:10.37,2013-06-27 11:33:00,
2013-06-27 04:38:00,50.3,48.6,30.10,SSE,153,3.5,3.5,94,0.00,CLR,,0.00,WeatherDisplay:10.37,2013-06-27 11:38:00,
2013-06-27 04:43:00,50.1,48.7,30.10,SSE,153,1.2,1.2,95,0.00,CLR,,0.00,WeatherDisplay:10.37,2013-06-27 11:43:00,
2013-06-27 04:48:00,49.9,48.2,30.10,SSE,153,0.0,0.0,94,0.00,CLR,,0.00,WeatherDisplay:10.37,2013-06-27 11:48:00,
2013-06-27 04:53:00,49.8,48.4,30.10,SSE,153,3.5,3.5,95,0.00,CLR,,0.00,WeatherDisplay:10.37,2013-06-27 11:53:00,
2013-06-27 04:58:00,49.6,47.9,30.10,SSE,153,2.3,2.3,94,0.00,CLR,,0.00,WeatherDisplay:10.37,2013-06-27 11:58:00,
2013-06-27 05:03:00,49.7,48.3,30.11,SSE,153,1.2,0.0,95,0.00,CLR,,0.00,WeatherDisplay:10.37,2013-06-27 12:03:00,
2013-06-27 05:08:00,50.0,48.6,30.11,SSE,153,3.0,3.0,95,0.00,CLR,,0.00,WeatherDisplay:10.37,2013-06-27 12:08:00,
2013-06-27 05:13:00,49.6,47.9,30.12,SSE,153,3.5,3.5,94,0.00,CLR,,0.00,WeatherDisplay:10.37,2013-06-27 12:13:00,
2013-06-27 05:18:00,50.1,48.7,30.12,SSE,153,3.5,3.5,95,0.00,CLR,,0.00,WeatherDisplay:10.37,2013-06-27 12:18:00,
2013-06-27 05:23:00,50.5,49.1,30.11,SSE,152,3.5,3.5,95,0.00,CLR,,0.00,WeatherDisplay:10.37,2013-06-27 12:23:00,
2013-06-27 05:28:00,50.7,49.0,30.11,SSE,152,3.5,3.5,94,0.00,CLR,,0.00,WeatherDisplay:10.37,2013-06-27 12:28:00,
2013-06-27 05:33:00,51.1,49.7,30.11,SSE,153,2.3,2.3,95,0.00,CLR,,0.00,WeatherDisplay:10.37,2013-06-27 12:33:00,
2013-06-27 05:38:00,51.3,49.6,30.11,ESE,114,5.0,5.0,94,0.00,CLR,,0.00,WeatherDisplay:10.37,2013-06-27 12:38:00,
2013-06-27 05:43:00,51.1,49.4,30.11,ESE,108,4.0,4.0,94,0.00,CLR,,0.00,WeatherDisplay:10.37,2013-06-27 12:43:00,
2013-06-27 05:48:00,51.0,49.3,30.11,ESE,107,4.6,4.6,94,0.00,CLR,,0.00,WeatherDisplay:10.37,2013-06-27 12:48:00,
2013-06-27 05:53:00,50.8,49.1,30.11,ESE,107,3.5,3.5,94,0.00,CLR,,0.00,WeatherDisplay:10.37,2013-06-27 12:53:00,
2013-06-27 05:58:00,51.0,49.3,30.11,ESE,107,2.3,2.3,94,0.00,CLR,,0.00,WeatherDisplay:10.37,2013-06-27 12:58:00,
2013-06-27 06:03:00,51.2,49.5,30.12,ESE,107,1.2,1.2,94,0.00,CLR,,0.00,WeatherDisplay:10.37,2013-06-27 13:03:00,
2013-06-27 06:08:00,51.7,50.3,30.11,ESE,107,3.5,3.5,95,0.00,CLR,,0.00,WeatherDisplay:10.37,2013-06-27 13:08:00,
2013-06-27 06:13:00,52.2,50.8,30.12,ESE,106,4.6,4.6,95,0.00,CLR,,0.00,WeatherDisplay:10.37,2013-06-27 13:13:00,
2013-06-27 06:18:00,52.4,51.0,30.12,ESE,107,3.5,3.5,95,0.00,CLR,,0.00,WeatherDisplay:10.37,2013-06-27 13:18:00,
2013-06-27 06:23:00,52.7,51.3,30.12,ESE,109,4.0,4.0,95,0.00,CLR,,0.00,WeatherDisplay:10.37,2013-06-27 13:23:00,
2013-06-27 06:28:00,53.0,51.6,30.12,ESE,109,4.0,4.0,95,0.00,CLR,,0.00,WeatherDisplay:10.37,2013-06-27 13:28:00,
2013-06-27 06:33:00,53.1,51.4,30.12,ESE,110,6.9,6.9,94,0.00,CLR,,0.00,WeatherDisplay:10.37,2013-06-27 13:33:00,
2013-06-27 06:38:00,53.3,51.6,30.12,ESE,111,6.0,6.0,94,0.00,CLR,,0.00,WeatherDisplay:10.37,2013-06-27 13:38:00,
2013-06-27 06:43:00,53.4,51.4,30.12,ESE,109,6.0,6.0,93,0.00,CLR,,0.00,WeatherDisplay:10.37,2013-06-27 13:43:00,
2013-06-27 06:48:00,53.7,51.7,30.11,SE,126,6.9,6.9,93,0.00,CLR,,0.00,WeatherDisplay:10.37,2013-06-27 13:48:00,
2013-06-27 06:53:00,54.4,52.4,30.11,ESE,122,5.0,5.0,93,0.00,CLR,,0.00,WeatherDisplay:10.37,2013-06-27 13:53:00,
2013-06-27 06:59:00,54.9,52.6,30.11,ESE,122,4.6,4.6,92,0.00,CLR,,0.00,WeatherDisplay:10.37,2013-06-27 13:59:00,
2013-06-27 07:04:00,55.5,53.2,30.11,SE,127,5.8,5.8,92,0.00,CLR,,0.00,WeatherDisplay:10.37,2013-06-27 14:04:00,
2013-06-27 07:09:00,55.9,53.3,30.11,SE,127,6.9,6.9,91,0.00,CLR,,0.00,WeatherDisplay:10.37,2013-06-27 14:09:00,
2013-06-27 07:14:00,56.4,53.8,30.11,ESE,123,8.1,8.1,91,0.00,CLR,,0.00,WeatherDisplay:10.37,2013-06-27 14:14:00,
2013-06-27 07:19:00,56.6,54.0,30.11,SE,124,10.4,10.4,91,0.00,CLR,,0.00,WeatherDisplay:10.37,2013-06-27 14:19:00,
2013-06-27 07:24:00,56.9,54.3,30.11,SE,130,10.4,10.4,91,0.00,CLR,,0.00,WeatherDisplay:10.37,2013-06-27 14:24:00,
2013-06-27 07:29:00,57.1,54.2,30.11,SE,132,9.2,9.2,90,0.00,CLR,,0.00,WeatherDisplay:10.37,2013-06-27 14:29:00,
2013-06-27 07:34:00,57.4,54.5,30.11,SE,126,10.4,10.4,90,0.00,CLR,,0.00,WeatherDisplay:10.37,2013-06-27 14:34:00,
2013-06-27 07:39:00,57.8,55.2,30.11,SE,134,12.7,12.7,91,0.00,CLR,,0.00,WeatherDisplay:10.37,2013-06-27 14:39:00,
2013-06-27 07:44:00,58.1,55.2,30.11,ESE,111,11.5,11.5,90,0.00,CLR,,0.00,WeatherDisplay:10.37,2013-06-27 14:44:00,
2013-06-27 07:49:00,58.3,55.4,30.10,ESE,109,10.4,10.4,90,0.00,CLR,,0.00,WeatherDisplay:10.37,2013-06-27 14:49:00,
2013-06-27 07:54:00,58.2,55.3,30.11,ESE,103,8.1,8.1,90,0.00,CLR,,0.00,WeatherDisplay:10.37,2013-06-27 14:54:00,
2013-06-27 07:59:00,58.1,54.9,30.12,ESE,109,10.4,10.4,89,0.00,CLR,,0.00,WeatherDisplay:10.37,2013-06-27 14:59:00,
2013-06-27 08:04:00,58.4,55.5,30.12,ESE,117,7.0,7.0,90,0.00,CLR,,0.00,WeatherDisplay:10.37,2013-06-27 15:04:00,
2013-06-27 08:09:00,58.6,55.4,30.12,ESE,115,10.4,10.4,89,0.00,CLR,,0.00,WeatherDisplay:10.37,2013-06-27 15:09:00,
2013-06-27 08:14:00,58.7,55.8,30.12,ESE,104,9.2,9.2,90,0.00,CLR,,0.00,WeatherDisplay:10.37,2013-06-27 15:14:00,
2013-06-27 08:19:00,58.8,55.9,30.12,SE,130,10.4,10.4,90,0.00,CLR,,0.00,WeatherDisplay:10.37,2013-06-27 15:19:00,
2013-06-27 08:24:00,59.0,56.1,30.12,ESE,117,9.2,9.2,90,0.00,CLR,,0.00,WeatherDisplay:10.37,2013-06-27 15:24:00,
2013-06-27 08:29:00,59.4,56.5,30.12,ESE,106,9.2,9.2,90,0.00,CLR,,0.00,WeatherDisplay:10.37,2013-06-27 15:29:00,
2013-06-27 08:34:00,60.0,57.4,30.11,ESE,113,10.4,10.4,91,0.00,CLR,,0.00,WeatherDisplay:10.37,2013-06-27 15:34:00,
2013-06-27 08:39:00,60.2,56.9,30.11,East,101,10.4,10.4,89,0.00,CLR,,0.00,WeatherDisplay:10.37,2013-06-27 15:39:00,
2013-06-27 08:44:00,60.3,56.7,30.11,SE,146,12.7,12.7,88,0.00,CLR,,0.00,WeatherDisplay:10.37,2013-06-27 15:44:00,
2013-06-27 08:49:00,60.9,57.0,30.11,SE,128,12.7,12.7,87,0.00,CLR,,0.00,WeatherDisplay:10.37,2013-06-27 15:49:00,
2013-06-27 08:54:00,61.3,57.7,30.11,South,172,11.5,11.5,88,0.00,CLR,,0.00,WeatherDisplay:10.37,2013-06-27 15:54:00,
2013-06-27 08:59:00,61.5,57.3,30.10,ESE,115,12.7,12.7,86,0.00,CLR,,0.00,WeatherDisplay:10.37,2013-06-27 15:59:00,
2013-06-27 09:04:00,62.3,57.7,30.10,SE,132,11.5,11.5,85,0.00,FEW,,0.00,WeatherDisplay:10.37,2013-06-27 16:04:00,
2013-06-27 09:09:00,62.3,57.1,30.10,SE,136,15.0,15.0,83,0.00,FEW,,0.00,WeatherDisplay:10.37,2013-06-27 16:09:00,
2013-06-27 09:14:00,62.5,56.9,30.10,ESE,119,13.8,13.8,82,0.00,FEW,,0.00,WeatherDisplay:10.37,2013-06-27 16:14:00,
2013-06-27 09:19:00,62.7,57.8,30.10,ESE,122,11.5,11.5,84,0.00,FEW,,0.00,WeatherDisplay:10.37,2013-06-27 16:19:00,
2013-06-27 09:24:00,62.9,58.0,30.10,ESE,120,11.5,11.5,84,0.00,FEW,,0.00,WeatherDisplay:10.37,2013-06-27 16:24:00,
2013-06-27 09:30:00,63.0,57.1,30.09,SE,143,12.7,12.7,81,0.00,FEW,,0.00,WeatherDisplay:10.37,2013-06-27 16:30:00,
2013-06-27 09:35:00,63.0,58.1,30.09,ESE,122,12.7,12.7,84,0.00,FEW,,0.00,WeatherDisplay:10.37,2013-06-27 16:35:00,
2013-06-27 09:40:00,63.2,57.6,30.10,SSE,148,16.0,16.0,82,0.00,FEW,,0.00,WeatherDisplay:10.37,2013-06-27 16:40:00,
2013-06-27 09:45:00,63.2,57.6,30.10,SE,136,13.8,13.8,82,0.00,FEW,,0.00,WeatherDisplay:10.37,2013-06-27 16:45:00,
2013-06-27 09:50:00,63.5,57.6,30.09,ESE,123,16.1,16.1,81,0.00,FEW,,0.00,WeatherDisplay:10.37,2013-06-27 16:50:00,
2013-06-27 09:55:00,63.4,57.8,30.10,SE,126,15.0,15.0,82,0.00,FEW,,0.00,WeatherDisplay:10.37,2013-06-27 16:55:00,
2013-06-27 10:00:00,63.9,58.6,30.10,ESE,123,11.5,11.5,83,0.00,FEW,,0.00,WeatherDisplay:10.37,2013-06-27 17:00:00,
2013-06-27 10:05:00,64.1,57.5,30.10,SE,125,13.8,13.8,79,0.00,CLR,,0.00,WeatherDisplay:10.37,2013-06-27 17:05:00,
2013-06-27 10:10:00,64.3,58.0,30.10,ESE,118,12.7,12.7,80,0.00,CLR,,0.00,WeatherDisplay:10.37,2013-06-27 17:10:00,
2013-06-27 10:15:00,64.8,58.5,30.10,ESE,115,9.2,9.2,80,0.00,CLR,,0.00,WeatherDisplay:10.37,2013-06-27 17:15:00,
2013-06-27 10:20:00,65.1,58.4,30.10,SE,127,10.4,10.4,79,0.00,CLR,,0.00,WeatherDisplay:10.37,2013-06-27 17:20:00,
2013-06-27 10:25:00,65.4,58.7,30.10,SSE,148,9.2,9.2,79,0.00,CLR,,0.00,WeatherDisplay:10.37,2013-06-27 17:25:00,
2013-06-27 10:30:00,65.7,59.4,30.09,SE,135,6.9,6.9,80,0.00,CLR,,0.00,WeatherDisplay:10.37,2013-06-27 17:30:00,
2013-06-27 10:35:00,66.3,59.9,30.09,SE,126,10.4,10.4,80,0.00,CLR,,0.00,WeatherDisplay:10.37,2013-06-27 17:35:00,
2013-06-27 10:40:00,66.4,60.0,30.09,ESE,119,13.8,13.8,80,0.00,CLR,,0.00,WeatherDisplay:10.37,2013-06-27 17:40:00,
2013-06-27 10:45:00,66.7,59.6,30.09,SE,130,11.5,11.5,78,0.00,CLR,,0.00,WeatherDisplay:10.37,2013-06-27 17:45:00,
2013-06-27 10:50:00,67.0,59.5,30.09,SE,132,12.7,12.7,77,0.00,CLR,,0.00,WeatherDisplay:10.37,2013-06-27 17:50:00,
2013-06-27 10:55:00,67.3,60.6,30.08,ESE,117,11.5,11.5,79,0.00,CLR,,0.00,WeatherDisplay:10.37,2013-06-27 17:55:00,
2013-06-27 11:00:00,67.8,60.3,30.08,SE,146,12.0,12.0,77,0.00,CLR,,0.00,WeatherDisplay:10.37,2013-06-27 18:00:00,
2013-06-27 11:05:00,67.7,59.5,30.08,SE,138,11.5,11.5,75,0.00,CLR,,0.00,WeatherDisplay:10.37,2013-06-27 18:05:00,
2013-06-27 11:10:00,68.0,60.2,30.08,SE,133,10.4,10.4,76,0.00,CLR,,0.00,WeatherDisplay:10.37,2013-06-27 18:10:00,
2013-06-27 11:15:00,68.4,60.2,30.08,SE,134,11.5,11.5,75,0.00,CLR,,0.00,WeatherDisplay:10.37,2013-06-27 18:15:00,
2013-06-27 11:20:00,68.6,61.5,30.08,SE,134,11.5,11.5,78,0.00,CLR,,0.00,WeatherDisplay:10.37,2013-06-27 18:20:00,
2013-06-27 11:25:00,68.6,60.0,30.08,SSE,157,10.4,10.4,74,0.00,CLR,,0.00,WeatherDisplay:10.37,2013-06-27 18:25:00,
2013-06-27 11:30:00,69.2,60.6,30.08,SE,141,11.5,11.5,74,0.00,CLR,,0.00,WeatherDisplay:10.37,2013-06-27 18:30:00,
2013-06-27 11:35:00,69.3,60.3,30.08,ESE,118,10.4,10.4,73,0.00,CLR,,0.00,WeatherDisplay:10.37,2013-06-27 18:35:00,
2013-06-27 11:40:00,69.6,61.7,30.07,SE,132,10.4,10.4,76,0.00,CLR,,0.00,WeatherDisplay:10.37,2013-06-27 18:40:00,
2013-06-27 11:45:00,69.9,61.2,30.07,SE,134,9.2,9.2,74,0.00,CLR,,0.00,WeatherDisplay:10.37,2013-06-27 18:45:00,
2013-06-27 11:50:00,70.1,61.8,30.07,SE,134,10.4,10.4,75,0.00,CLR,,0.00,WeatherDisplay:10.37,2013-06-27 18:50:00,
2013-06-27 11:55:00,70.6,61.1,30.07,ESE,107,5.8,5.8,72,0.00,CLR,,0.00,WeatherDisplay:10.37,2013-06-27 18:55:00,
2013-06-27 12:00:00,70.6,61.1,30.07,ESE,113,6.9,6.9,72,0.00,CLR,,0.00,WeatherDisplay:10.37,2013-06-27 19:00:00,
2013-06-27 12:05:00,70.5,60.6,30.07,ESE,115,9.2,9.2,71,0.00,CLR,,0.00,WeatherDisplay:10.37,2013-06-27 19:05:00,
2013-06-27 12:10:00,70.8,61.7,30.07,ESE,111,5.0,5.0,73,0.00,CLR,,0.00,WeatherDisplay:10.37,2013-06-27 19:10:00,
2013-06-27 12:15:00,71.3,61.8,30.07,ESE,103,3.5,3.5,72,0.00,CLR,,0.00,WeatherDisplay:10.37,2013-06-27 19:15:00,
2013-06-27 12:20:00,71.7,63.4,30.06,ENE,72,8.0,8.0,75,0.00,CLR,,0.00,WeatherDisplay:10.37,2013-06-27 19:20:00,
2013-06-27 12:25:00,71.6,61.3,30.07,ENE,71,6.9,6.9,70,0.00,CLR,,0.00,WeatherDisplay:10.37,2013-06-27 19:25:00,
2013-06-27 12:30:00,71.8,62.7,30.07,ENE,63,5.8,5.8,73,0.00,CLR,,0.00,WeatherDisplay:10.37,2013-06-27 19:30:00,
2013-06-27 12:35:00,72.4,63.6,30.07,ENE,63,6.0,6.0,74,0.00,CLR,,0.00,WeatherDisplay:10.37,2013-06-27 19:35:00,
2013-06-27 12:40:00,72.3,63.5,30.06,NE,42,8.1,8.1,74,0.00,CLR,,0.00,WeatherDisplay:10.37,2013-06-27 19:40:00,
2013-06-27 12:45:00,72.4,62.5,30.07,ENE,65,10.4,10.4,71,0.00,CLR,,0.00,WeatherDisplay:10.37,2013-06-27 19:45:00,
2013-06-27 12:50:00,72.5,63.0,30.07,ENE,74,9.2,9.2,72,0.00,CLR,,0.00,WeatherDisplay:10.37,2013-06-27 19:50:00,
2013-06-27 12:55:00,72.4,63.6,30.07,ENE,67,5.8,5.8,74,0.00,CLR,,0.00,WeatherDisplay:10.37,2013-06-27 19:55:00,
2013-06-27 13:00:00,72.9,62.1,30.07,ENE,73,5.8,5.8,69,0.00,CLR,,0.00,WeatherDisplay:10.37,2013-06-27 20:00:00,
2013-06-27 13:05:00,72.9,62.5,30.07,SE,129,3.5,3.5,70,0.00,CLR,,0.00,WeatherDisplay:10.37,2013-06-27 20:05:00,
2013-06-27 13:10:00,73.3,63.3,30.07,ESE,119,6.0,6.0,71,0.00,CLR,,0.00,WeatherDisplay:10.37,2013-06-27 20:10:00,
2013-06-27 13:15:00,73.2,61.6,30.07,ESE,106,3.5,3.5,67,0.00,CLR,,0.00,WeatherDisplay:10.37,2013-06-27 20:15:00,
2013-06-27 13:20:00,73.5,63.9,30.06,ENE,65,9.2,9.2,72,0.00,CLR,,0.00,WeatherDisplay:10.37,2013-06-27 20:20:00,
2013-06-27 13:25:00,73.7,64.5,30.06,ENE,76,8.1,8.1,73,0.00,CLR,,0.00,WeatherDisplay:10.37,2013-06-27 20:25:00,
2013-06-27 13:31:00,74.2,64.2,30.06,North,350,8.0,8.0,71,0.00,CLR,,0.00,WeatherDisplay:10.37,2013-06-27 20:31:00,
2013-06-27 13:36:00,74.3,63.1,30.07,ENE,60,9.2,9.2,68,0.00,CLR,,0.00,WeatherDisplay:10.37,2013-06-27 20:36:00,
2013-06-27 13:42:00,74.4,64.0,30.06,NE,53,5.8,5.8,70,0.00,CLR,,0.00,WeatherDisplay:10.37,2013-06-27 20:42:00,
2013-06-27 13:47:00,74.7,63.0,30.07,ESE,115,4.6,4.6,67,0.00,CLR,,0.00,WeatherDisplay:10.37,2013-06-27 20:47:00,
2013-06-27 13:52:00,74.6,64.6,30.06,East,95,1.2,0.0,71,0.00,CLR,,0.00,WeatherDisplay:10.37,2013-06-27 20:52:00,
2013-06-27 13:57:00,75.3,63.2,30.07,ENE,64,3.5,3.5,66,0.00,CLR,,0.00,WeatherDisplay:10.37,2013-06-27 20:57:00,
2013-06-27 14:03:00,76.0,64.7,30.06,NNE,19,9.0,9.0,68,0.00,CLR,,0.00,WeatherDisplay:10.37,2013-06-27 21:03:00,
2013-06-27 14:09:00,75.6,63.9,30.07,NE,34,10.0,10.0,67,0.00,CLR,,0.00,WeatherDisplay:10.37,2013-06-27 21:09:00,
2013-06-27 14:14:00,74.9,64.0,30.07,NNE,13,6.9,6.9,69,0.00,CLR,,0.00,WeatherDisplay:10.37,2013-06-27 21:14:00,
2013-06-27 14:19:00,75.4,64.1,30.07,NE,46,8.1,8.1,68,0.00,CLR,,0.00,WeatherDisplay:10.37,2013-06-27 21:19:00,
2013-06-27 14:24:00,75.5,62.9,30.07,North,10,3.5,3.5,65,0.00,CLR,,0.00,WeatherDisplay:10.37,2013-06-27 21:24:00,
2013-06-27 14:29:00,76.3,64.5,30.06,North,5,2.3,2.3,67,0.00,CLR,,0.00,WeatherDisplay:10.37,2013-06-27 21:29:00,
2013-06-27 14:34:00,77.5,65.2,30.06,North,5,1.2,0.0,66,0.00,CLR,,0.00,WeatherDisplay:10.37,2013-06-27 21:34:00,
2013-06-27 14:41:00,78.3,62.3,30.06,North,5,1.2,1.2,58,0.00,CLR,,0.00,WeatherDisplay:10.37,2013-06-27 21:41:00,
2013-06-27 14:46:00,78.6,62.1,30.06,North,360,4.0,4.0,57,0.00,CLR,,0.00,WeatherDisplay:10.37,2013-06-27 21:46:00,
2013-06-27 14:51:00,78.9,63.4,30.05,North,360,0.0,0.0,59,0.00,CLR,,0.00,WeatherDisplay:10.37,2013-06-27 21:51:00,
2013-06-27 14:56:00,79.1,65.0,30.06,North,5,1.0,1.0,62,0.00,CLR,,0.00,WeatherDisplay:10.37,2013-06-27 21:56:00,
2013-06-27 15:02:00,79.9,64.8,30.06,WNW,282,0.0,0.0,60,0.00,CLR,,0.00,WeatherDisplay:10.37,2013-06-27 22:02:00,
2013-06-27 15:07:00,80.5,62.8,30.05,NW,325,3.5,3.5,55,0.00,CLR,,0.00,WeatherDisplay:10.37,2013-06-27 22:07:00,
2013-06-27 15:12:00,80.6,64.5,30.05,NNW,346,3.5,3.5,58,0.00,CLR,,0.00,WeatherDisplay:10.37,2013-06-27 22:12:00,
2013-06-27 15:17:00,80.5,65.8,30.05,NNW,346,3.0,3.0,61,0.00,CLR,,0.00,WeatherDisplay:10.37,2013-06-27 22:17:00,
2013-06-27 15:22:00,80.9,66.7,30.05,NW,311,3.5,3.5,62,0.00,CLR,,0.00,WeatherDisplay:10.37,2013-06-27 22:22:00,
2013-06-27 15:27:00,81.6,64.9,30.05,NW,316,3.5,3.5,57,0.00,CLR,,0.00,WeatherDisplay:10.37,2013-06-27 22:27:00,
2013-06-27 15:33:00,81.3,62.5,30.05,NW,315,3.5,3.5,53,0.00,CLR,,0.00,WeatherDisplay:10.37,2013-06-27 22:33:00,
2013-06-27 15:38:00,80.4,64.3,30.06,NW,317,2.3,0.0,58,0.00,CLR,,0.00,WeatherDisplay:10.37,2013-06-27 22:38:00,
2013-06-27 15:43:00,80.5,63.4,30.05,NW,326,3.5,3.5,56,0.00,CLR,,0.00,WeatherDisplay:10.37,2013-06-27 22:43:00,
2013-06-27 15:48:00,80.7,65.0,30.05,NW,325,3.5,3.5,59,0.00,CLR,,0.00,WeatherDisplay:10.37,2013-06-27 22:48:00,
2013-06-27 15:54:00,80.7,60.9,30.05,NW,325,2.3,2.3,51,0.00,CLR,,0.00,WeatherDisplay:10.37,2013-06-27 22:54:00,
2013-06-27 16:00:00,80.9,65.2,30.06,NW,325,1.2,1.2,59,0.00,CLR,,0.00,WeatherDisplay:10.37,2013-06-27 23:00:00,
2013-06-27 16:05:00,81.2,64.5,30.06,North,5,6.9,6.9,57,0.00,CLR,,0.00,WeatherDisplay:10.37,2013-06-27 23:05:00,
2013-06-27 16:11:00,81.6,65.9,30.05,NNW,342,3.5,3.5,59,0.00,CLR,,0.00,WeatherDisplay:10.37,2013-06-27 23:11:00,
2013-06-27 16:17:00,81.7,61.8,30.06,NW,314,4.0,4.0,51,0.00,CLR,,0.00,WeatherDisplay:10.37,2013-06-27 23:17:00,
2013-06-27 16:22:00,81.4,66.2,30.06,North,355,3.0,3.0,60,0.00,CLR,,0.00,WeatherDisplay:10.37,2013-06-27 23:22:00,
2013-06-27 16:28:00,81.1,63.4,30.06,NW,326,3.5,3.5,55,0.00,CLR,,0.00,WeatherDisplay:10.37,2013-06-27 23:28:00,
2013-06-27 16:33:00,81.2,65.5,30.06,NNW,328,0.0,0.0,59,0.00,CLR,,0.00,WeatherDisplay:10.37,2013-06-27 23:33:00,
2013-06-27 16:39:00,81.4,64.7,30.06,NNW,334,1.2,1.2,57,0.00,CLR,,0.00,WeatherDisplay:10.37,2013-06-27 23:39:00,
2013-06-27 16:44:00,81.6,64.9,30.05,NNW,346,1.2,1.2,57,0.00,CLR,,0.00,WeatherDisplay:10.37,2013-06-27 23:44:00,
2013-06-27 16:49:00,81.9,65.2,30.05,NW,315,3.5,3.5,57,0.00,CLR,,0.00,WeatherDisplay:10.37,2013-06-27 23:49:00,
2013-06-27 16:54:00,81.6,62.8,30.06,NW,321,5.8,5.8,53,0.00,CLR,,0.00,WeatherDisplay:10.37,2013-06-27 23:54:00,
2013-06-27 17:00:00,80.4,62.8,30.06,NNW,341,6.9,6.9,55,0.00,CLR,,0.00,WeatherDisplay:10.37,2013-06-28 00:00:00,
2013-06-27 17:05:00,79.6,62.5,30.06,NNE,19,4.6,4.6,56,0.00,CLR,,0.00,WeatherDisplay:10.37,2013-06-28 00:05:00,
2013-06-27 17:10:00,78.7,62.7,30.06,NW,323,4.6,4.6,58,0.00,CLR,,0.00,WeatherDisplay:10.37,2013-06-28 00:10:00,
2013-06-27 17:16:00,77.5,62.0,30.07,NNE,23,10.4,10.4,59,0.00,CLR,,0.00,WeatherDisplay:10.37,2013-06-28 00:16:00,
2013-06-27 17:21:00,76.8,62.8,30.07,NNW,329,5.0,5.0,62,0.00,CLR,,0.00,WeatherDisplay:10.37,2013-06-28 00:21:00,
2013-06-27 17:26:00,76.1,62.6,30.08,North,355,10.4,10.4,63,0.00,CLR,,0.00,WeatherDisplay:10.37,2013-06-28 00:26:00,
2013-06-27 17:32:00,75.7,63.1,30.08,NNW,345,10.4,10.4,65,0.00,CLR,,0.00,WeatherDisplay:10.37,2013-06-28 00:32:00,
2013-06-27 17:38:00,76.3,62.8,30.08,WNW,295,11.5,11.5,63,0.00,CLR,,0.00,WeatherDisplay:10.37,2013-06-28 00:38:00,
2013-06-27 17:43:00,76.5,63.4,30.08,NW,306,11.5,11.5,64,0.00,CLR,,0.00,WeatherDisplay:10.37,2013-06-28 00:43:00,
2013-06-27 17:48:00,76.9,63.8,30.08,NNW,346,5.0,5.0,64,0.00,CLR,,0.00,WeatherDisplay:10.37,2013-06-28 00:48:00,
2013-06-27 17:54:00,77.1,63.1,30.08,NNW,346,6.9,6.9,62,0.00,CLR,,0.00,WeatherDisplay:10.37,2013-06-28 00:54:00,
2013-06-27 17:59:00,77.3,64.2,30.06,NW,321,9.2,9.2,64,0.00,CLR,,0.00,WeatherDisplay:10.37,2013-06-28 00:59:00,
2013-06-27 18:04:00,77.5,63.5,30.07,NW,322,9.2,9.2,62,0.00,CLR,,0.00,WeatherDisplay:10.37,2013-06-28 01:04:00,
2013-06-27 18:09:00,77.6,63.5,30.07,NW,325,6.0,6.0,62,0.00,CLR,,0.00,WeatherDisplay:10.37,2013-06-28 01:09:00,
2013-06-27 18:16:00,77.3,62.8,30.07,NNW,329,4.6,4.6,61,0.00,CLR,,0.00,WeatherDisplay:10.37,2013-06-28 01:16:00,
2013-06-27 18:21:00,77.1,63.1,30.07,NW,325,1.2,1.2,62,0.00,CLR,,0.00,WeatherDisplay:10.37,2013-06-28 01:21:00,
2013-06-27 18:26:00,76.8,62.3,30.07,North,349,5.0,5.0,61,0.00,CLR,,0.00,WeatherDisplay:10.37,2013-06-28 01:26:00,
2013-06-27 18:32:00,76.7,62.7,30.07,NW,322,5.8,5.8,62,0.00,CLR,,0.00,WeatherDisplay:10.37,2013-06-28 01:32:00,
2013-06-27 18:37:00,76.6,62.6,30.07,NW,304,6.0,6.0,62,0.00,CLR,,0.00,WeatherDisplay:10.37,2013-06-28 01:37:00,
2013-06-27 18:42:00,76.2,61.8,30.08,NW,323,4.6,4.6,61,0.00,CLR,,0.00,WeatherDisplay:10.37,2013-06-28 01:42:00,
2013-06-27 18:47:00,75.3,61.8,30.08,NNW,330,3.5,3.5,63,0.00,CLR,,0.00,WeatherDisplay:10.37,2013-06-28 01:47:00,
2013-06-27 18:52:00,74.5,62.0,30.08,NNW,331,1.0,1.0,65,0.00,CLR,,0.00,WeatherDisplay:10.37,2013-06-28 01:52:00,
2013-06-27 18:58:00,74.4,61.9,30.08,NW,324,3.5,3.5,65,0.00,CLR,,0.00,WeatherDisplay:10.37,2013-06-28 01:58:00,
2013-06-27 19:03:00,74.1,61.6,30.07,NW,317,3.5,3.5,65,0.00,CLR,,0.00,WeatherDisplay:10.37,2013-06-28 02:03:00,
2013-06-27 19:08:00,73.7,62.1,30.07,NNE,21,3.5,3.5,67,0.00,CLR,,0.00,WeatherDisplay:10.37,2013-06-28 02:08:00,
2013-06-27 19:13:00,73.7,61.6,30.07,NNW,334,3.5,3.5,66,0.00,CLR,,0.00,WeatherDisplay:10.37,2013-06-28 02:13:00,
2013-06-27 19:18:00,73.7,61.6,30.07,NW,322,6.9,6.9,66,0.00,CLR,,0.00,WeatherDisplay:10.37,2013-06-28 02:18:00,
2013-06-27 19:24:00,73.6,61.5,30.07,NW,315,2.3,2.3,66,0.00,CLR,,0.00,WeatherDisplay:10.37,2013-06-28 02:24:00,
2013-06-27 19:29:00,73.0,61.4,30.08,NW,315,1.2,1.2,67,0.00,CLR,,0.00,WeatherDisplay:10.37,2013-06-28 02:29:00,
2013-06-27 19:34:00,72.3,60.7,30.08,NW,314,2.3,2.3,67,0.00,CLR,,0.00,WeatherDisplay:10.37,2013-06-28 02:34:00,
2013-06-27 19:39:00,71.6,60.9,30.08,NW,317,3.0,3.0,69,0.00,CLR,,0.00,WeatherDisplay:10.37,2013-06-28 02:39:00,
2013-06-27 19:45:00,70.9,60.2,30.09,NNW,327,1.2,1.2,69,0.00,CLR,,0.00,WeatherDisplay:10.37,2013-06-28 02:45:00,
2013-06-27 19:50:00,70.5,60.6,30.09,NNW,329,0.0,0.1,71,0.00,CLR,,0.00,WeatherDisplay:10.37,2013-06-28 02:50:00,
2013-06-27 19:55:00,70.1,60.3,30.08,NNW,330,0.0,0.0,71,0.00,CLR,,0.00,WeatherDisplay:10.37,2013-06-28 02:55:00,
2013-06-27 20:01:00,69.8,60.4,30.07,NNW,331,0.0,0.0,72,0.00,CLR,,0.00,WeatherDisplay:10.37,2013-06-28 03:01:00,
2013-06-27 20:06:00,69.3,59.9,30.08,NNW,330,2.3,2.3,72,0.00,CLR,,0.00,WeatherDisplay:10.37,2013-06-28 03:06:00,
2013-06-27 20:11:00,68.9,59.5,30.08,NNW,331,2.3,2.3,72,0.00,CLR,,0.00,WeatherDisplay:10.37,2013-06-28 03:11:00,
2013-06-27 20:16:00,68.5,59.5,30.08,NNW,330,1.2,0.0,73,0.00,CLR,,0.00,WeatherDisplay:10.37,2013-06-28 03:16:00,
2013-06-27 20:21:00,68.1,59.1,30.08,NNW,330,1.2,1.2,73,0.00,CLR,,0.00,WeatherDisplay:10.37,2013-06-28 03:21:00,
2013-06-27 20:27:00,67.9,58.9,30.09,NNW,330,1.0,1.0,73,0.00,CLR,,0.00,WeatherDisplay:10.37,2013-06-28 03:27:00,
2013-06-27 20:32:00,67.7,58.7,30.09,NNW,331,1.2,1.2,73,0.00,CLR,,0.00,WeatherDisplay:10.37,2013-06-28 03:32:00,
2013-06-27 20:37:00,67.6,58.6,30.09,NNW,330,2.3,2.3,73,0.00,CLR,,0.00,WeatherDisplay:10.37,2013-06-28 03:37:00,
2013-06-27 20:42:00,67.4,58.8,30.10,NNW,329,0.0,0.0,74,0.00,CLR,,0.00,WeatherDisplay:10.37,2013-06-28 03:42:00,
2013-06-27 20:48:00,67.2,58.6,30.10,NNW,329,0.0,0.0,74,0.00,CLR,,0.00,WeatherDisplay:10.37,2013-06-28 03:48:00,
2013-06-27 20:54:00,66.9,58.3,30.10,NNW,329,0.0,0.0,74,0.00,CLR,,0.00,WeatherDisplay:10.37,2013-06-28 03:54:00,
2013-06-27 21:00:00,66.7,58.5,30.10,NNW,329,0.0,0.0,75,0.00,CLR,,0.00,WeatherDisplay:10.37,2013-06-28 04:00:00,
2013-06-27 21:01:00,66.6,58.4,30.10,NNW,329,0.0,0.0,75,0.00,CLR,,0.00,WeatherDisplay:10.37,2013-06-28 04:01:00,
2013-06-27 21:02:00,66.6,58.4,30.10,NNW,329,0.0,0.0,75,0.00,CLR,,0.00,WeatherDisplay:10.37,2013-06-28 04:02:00,
2013-06-27 21:07:00,66.4,58.2,30.10,NNW,329,0.0,0.0,75,0.00,CLR,,0.00,WeatherDisplay:10.37,2013-06-28 04:07:00,
2013-06-27 21:12:00,66.3,57.8,30.10,NNW,329,0.0,0.0,74,0.00,CLR,,0.00,WeatherDisplay:10.37,2013-06-28 04:12:00,
2013-06-27 21:17:00,66.1,57.9,30.10,NNW,329,1.0,1.0,75,0.00,CLR,,0.00,WeatherDisplay:10.37,2013-06-28 04:17:00,
2013-06-27 21:22:00,65.2,57.8,30.11,NNW,329,0.0,0.0,77,0.00,CLR,,0.00,WeatherDisplay:10.37,2013-06-28 04:22:00,
2013-06-27 21:27:00,64.6,57.6,30.11,NNW,329,2.3,2.3,78,0.00,CLR,,0.00,WeatherDisplay:10.37,2013-06-28 04:27:00,
2013-06-27 21:32:00,64.0,57.4,30.11,NNW,329,0.0,0.0,79,0.00,CLR,,0.00,WeatherDisplay:10.37,2013-06-28 04:32:00,
2013-06-27 21:37:00,63.2,57.6,30.12,NNW,329,0.0,0.0,82,0.00,CLR,,0.00,WeatherDisplay:10.37,2013-06-28 04:37:00,
2013-06-27 21:42:00,62.8,57.6,30.12,NNW,329,0.0,0.0,83,0.00,CLR,,0.00,WeatherDisplay:10.37,2013-06-28 04:42:00,
2013-06-27 21:47:00,62.4,57.5,30.12,NNW,329,2.3,2.3,84,0.00,CLR,,0.00,WeatherDisplay:10.37,2013-06-28 04:47:00,
2013-06-27 21:52:00,62.1,57.2,30.12,NNW,329,3.5,3.5,84,0.00,CLR,,0.00,WeatherDisplay:10.37,2013-06-28 04:52:00,
2013-06-27 21:57:00,62.0,57.1,30.12,NNW,329,0.0,0.0,84,0.00,CLR,,0.00,WeatherDisplay:10.37,2013-06-28 04:57:00,
2013-06-27 22:02:00,61.8,57.2,30.11,NNW,329,0.0,0.0,85,0.00,CLR,,0.00,WeatherDisplay:10.37,2013-06-28 05:02:00,
2013-06-27 22:07:00,61.7,57.5,30.11,NNW,329,0.0,0.0,86,0.00,CLR,,0.00,WeatherDisplay:10.37,2013-06-28 05:07:00,
2013-06-27 22:12:00,61.5,57.6,30.11,NNW,329,0.0,0.0,87,0.00,CLR,,0.00,WeatherDisplay:10.37,2013-06-28 05:12:00,
2013-06-27 22:17:00,61.6,57.4,30.11,NNW,329,0.0,0.0,86,0.00,CLR,,0.00,WeatherDisplay:10.37,2013-06-28 05:17:00,
2013-06-27 22:22:00,61.7,57.5,30.11,NNW,329,0.0,0.0,86,0.00,CLR,,0.00,WeatherDisplay:10.37,2013-06-28 05:22:00,
2013-06-27 22:27:00,61.8,57.2,30.11,NNW,329,0.0,0.0,85,0.00,CLR,,0.00,WeatherDisplay:10.37,2013-06-28 05:27:00,
2013-06-27 22:32:00,61.8,56.9,30.11,NNW,329,0.0,0.0,84,0.00,CLR,,0.00,WeatherDisplay:10.37,2013-06-28 05:32:00,
2013-06-27 22:37:00,62.1,57.2,30.11,NNW,329,2.3,2.3,84,0.00,CLR,,0.00,WeatherDisplay:10.37,2013-06-28 05:37:00,
2013-06-27 22:42:00,61.5,56.6,30.11,NNW,329,1.2,1.2,84,0.00,CLR,,0.00,WeatherDisplay:10.37,2013-06-28 05:42:00,
2013-06-27 22:47:00,60.8,56.6,30.12,NNW,329,0.0,0.0,86,0.00,CLR,,0.00,WeatherDisplay:10.37,2013-06-28 05:47:00,
2013-06-27 22:52:00,60.6,56.1,30.12,NNW,329,0.0,0.0,85,0.00,CLR,,0.00,WeatherDisplay:10.37,2013-06-28 05:52:00,
2013-06-27 22:57:00,60.6,55.7,30.12,NNW,329,0.0,0.0,84,0.00,CLR,,0.00,WeatherDisplay:10.37,2013-06-28 05:57:00,
2013-06-27 23:02:00,60.4,55.5,30.11,NNW,329,0.0,0.0,84,0.00,CLR,,0.00,WeatherDisplay:10.37,2013-06-28 06:02:00,
2013-06-27 23:07:00,59.8,55.3,30.12,NNW,329,0.0,0.0,85,0.00,CLR,,0.00,WeatherDisplay:10.37,2013-06-28 06:07:00,
2013-06-27 23:12:00,59.6,55.4,30.11,NNW,329,0.0,0.0,86,0.00,CLR,,0.00,WeatherDisplay:10.37,2013-06-28 06:12:00,
2013-06-27 23:17:00,59.0,54.8,30.12,NNW,329,1.0,0.0,86,0.00,CLR,,0.00,WeatherDisplay:10.37,2013-06-28 06:17:00,
2013-06-27 23:22:00,58.6,54.7,30.12,NNW,329,0.0,0.0,87,0.00,CLR,,0.00,WeatherDisplay:10.37,2013-06-28 06:22:00,
2013-06-27 23:27:00,59.0,55.1,30.12,NNW,329,0.0,0.0,87,0.00,CLR,,0.00,WeatherDisplay:10.37,2013-06-28 06:27:00,
2013-06-27 23:32:00,59.2,54.7,30.12,NNW,329,0.0,0.0,85,0.00,CLR,,0.00,WeatherDisplay:10.37,2013-06-28 06:32:00,
2013-06-27 23:37:00,59.0,54.8,30.12,NNW,329,0.0,0.0,86,0.00,CLR,,0.00,WeatherDisplay:10.37,2013-06-28 06:37:00,
2013-06-27 23:42:00,59.0,54.8,30.12,NNW,329,0.0,0.0,86,0.00,CLR,,0.00,WeatherDisplay:10.37,2013-06-28 06:42:00,
2013-06-27 23:47:00,59.0,54.8,30.12,NNW,329,0.0,0.0,86,0.00,CLR,,0.00,WeatherDisplay:10.37,2013-06-28 06:47:00,
2013-06-27 23:52:00,59.2,54.7,30.12,NNW,329,0.0,0.0,85,0.00,CLR,,0.00,WeatherDisplay:10.37,2013-06-28 06:52:00,
2013-06-27 23:57:00,59.3,54.8,30.12,NNW,329,0.0,0.0,85,0.00,CLR,,0.00,WeatherDisplay:10.37,2013-06-28 06:57:00,